createdAt,value
2022-12-23T00:01:22.775Z,44.00
2022-12-23T00:03:49.746Z,44.60
2022-12-23T00:06:17.307Z,44.80
2022-12-23T00:08:44.749Z,44.90
2022-12-23T00:11:14.045Z,36.30
2022-12-23T00:14:00.172Z,36.30
2022-12-23T00:16:27.597Z,37.80
2022-12-23T00:18:54.598Z,39.00
2022-12-23T00:21:21.624Z,40.70
2022-12-23T00:23:50.039Z,41.90
2022-12-23T00:26:21.817Z,40.20
2022-12-23T00:28:49.103Z,35.60
2022-12-23T00:31:18.726Z,35.20
2022-12-23T00:33:47.687Z,40.60
2022-12-23T00:36:16.808Z,40.60
2022-12-23T00:39:02.550Z,43.80
2022-12-23T00:41:48.638Z,43.90
2022-12-23T00:44:15.601Z,44.70
2022-12-23T00:46:42.503Z,39.50
2022-12-23T00:49:30.722Z,38.80
2022-12-23T00:51:58.064Z,40.40
2022-12-23T00:54:25.005Z,40.80
2022-12-23T00:56:52.255Z,45.70
2022-12-23T00:59:19.341Z,44.20
2022-12-23T01:02:05.456Z,44.10
2022-12-23T01:04:52.543Z,37.60
2022-12-23T01:07:19.909Z,38.90
2022-12-23T01:09:46.889Z,42.00
2022-12-23T01:12:14.189Z,43.40
2022-12-23T01:14:41.309Z,45.30
2022-12-23T01:17:08.479Z,49.30
2022-12-23T01:19:35.740Z,47.00
2022-12-23T01:22:02.721Z,43.90
2022-12-23T01:24:30.622Z,43.10
2022-12-23T01:26:57.564Z,46.60
2022-12-23T01:29:24.373Z,51.20
2022-12-23T01:31:51.484Z,47.20
2022-12-23T01:34:18.932Z,50.30
2022-12-23T01:36:46.170Z,52.40
2022-12-23T01:39:14.152Z,40.80
2022-12-23T01:42:00.197Z,39.70
2022-12-23T01:44:48.985Z,40.00
2022-12-23T01:47:40.259Z,46.10
2022-12-23T01:50:26.283Z,47.80
2022-12-23T01:53:02.978Z,51.70
2022-12-23T01:55:36.811Z,49.50
2022-12-23T01:58:13.257Z,44.70
2022-12-23T02:00:59.642Z,42.40
2022-12-23T02:03:45.410Z,44.10
2022-12-23T02:07:00.805Z,46.90
2022-12-23T02:09:32.821Z,48.10
2022-12-23T02:12:36.046Z,49.60
2022-12-23T02:15:33.362Z,47.90
2022-12-23T02:18:28.519Z,37.70
2022-12-23T02:21:04.105Z,41.00
2022-12-23T02:24:02.526Z,41.60
2022-12-23T02:27:06.703Z,43.60
2022-12-23T02:29:56.581Z,46.00
2022-12-23T02:32:30.557Z,49.10
2022-12-23T02:35:28.936Z,47.70
2022-12-23T02:38:16.544Z,38.90
2022-12-23T02:40:52.799Z,40.80
2022-12-23T02:43:41.728Z,40.90
2022-12-23T02:46:13.756Z,42.80
2022-12-23T02:49:13.219Z,42.80
2022-12-23T02:51:45.958Z,43.00
2022-12-23T02:54:14.562Z,43.90
2022-12-23T02:56:43.412Z,36.60
2022-12-23T02:59:16.212Z,36.70
2022-12-23T03:01:43.353Z,39.70
2022-12-23T03:04:10.480Z,43.30
2022-12-23T03:06:40.052Z,42.70
2022-12-23T03:09:07.308Z,43.20
2022-12-23T03:11:47.847Z,42.80
2022-12-23T03:14:36.297Z,34.90
2022-12-23T03:17:54.090Z,36.10
2022-12-23T03:20:25.711Z,38.30
2022-12-23T03:23:26.043Z,39.90
2022-12-23T03:26:07.758Z,40.90
2022-12-23T03:28:49.496Z,44.40
2022-12-23T03:31:26.564Z,42.60
2022-12-23T03:33:56.383Z,35.00
2022-12-23T03:36:29.878Z,33.90
2022-12-23T03:38:57.463Z,34.90
2022-12-23T03:41:31.919Z,39.70
2022-12-23T03:44:02.312Z,39.60
2022-12-23T03:46:58.466Z,39.10
2022-12-23T03:49:31.707Z,38.70
2022-12-23T03:52:04.381Z,31.50
2022-12-23T03:54:36.524Z,32.90
2022-12-23T03:57:05.168Z,35.10
2022-12-23T03:59:34.724Z,35.70
2022-12-23T04:02:09.397Z,36.00
2022-12-23T04:05:14.302Z,35.70
2022-12-23T04:07:43.608Z,37.10
2022-12-23T04:10:10.809Z,30.40
2022-12-23T04:12:38.503Z,34.40
2022-12-23T04:15:12.293Z,38.20
2022-12-23T04:17:39.996Z,41.00
2022-12-23T04:20:08.190Z,40.30
2022-12-23T04:22:35.637Z,39.00
2022-12-23T04:25:02.726Z,42.10
2022-12-23T04:27:30.055Z,33.20
2022-12-23T04:29:57.295Z,33.90
2022-12-23T04:32:24.196Z,37.00
2022-12-23T04:34:51.071Z,36.60
2022-12-23T04:37:17.925Z,43.60
2022-12-23T04:39:44.888Z,43.00
2022-12-23T04:42:11.785Z,44.30
2022-12-23T04:44:38.723Z,35.00
2022-12-23T04:47:05.754Z,36.90
2022-12-23T04:49:33.254Z,37.40
2022-12-23T04:52:00.136Z,41.40
2022-12-23T04:54:27.124Z,43.80
2022-12-23T04:56:54.106Z,45.70
2022-12-23T04:59:21.231Z,44.50
2022-12-23T05:01:48.187Z,35.30
2022-12-23T05:04:15.118Z,37.50
2022-12-23T05:06:42.053Z,36.60
2022-12-23T05:09:09.064Z,36.90
2022-12-23T05:11:41.911Z,43.40
2022-12-23T05:14:10.569Z,43.80
2022-12-23T05:16:38.022Z,51.40
2022-12-23T05:19:06.851Z,45.00
2022-12-23T05:21:33.826Z,35.80
2022-12-23T05:24:00.772Z,32.90
2022-12-23T05:26:27.836Z,36.40
2022-12-23T05:28:55.139Z,35.00
2022-12-23T05:31:22.065Z,36.80
2022-12-23T05:33:49.028Z,37.40
2022-12-23T05:36:16.056Z,35.80
2022-12-23T05:38:42.888Z,33.90
2022-12-23T05:41:10.078Z,29.90
2022-12-23T05:43:36.974Z,31.80
2022-12-23T05:46:04.091Z,41.30
2022-12-23T05:48:31.156Z,50.20
2022-12-23T05:50:58.179Z,43.20
2022-12-23T05:53:25.992Z,38.40
2022-12-23T05:55:52.852Z,38.70
2022-12-23T05:58:19.848Z,35.40
2022-12-23T06:00:46.756Z,36.60
2022-12-23T06:03:13.970Z,34.60
2022-12-23T06:05:43.595Z,36.60
2022-12-23T06:08:10.786Z,37.50
2022-12-23T06:10:38.644Z,39.70
2022-12-23T06:13:05.527Z,39.30
2022-12-23T06:15:33.308Z,39.30
2022-12-23T06:18:00.207Z,31.80
2022-12-23T06:20:27.367Z,35.30
2022-12-23T06:22:55.081Z,35.90
2022-12-23T06:25:21.938Z,36.40
2022-12-23T06:27:48.863Z,51.80
2022-12-23T06:30:18.122Z,42.00
2022-12-23T06:32:45.082Z,49.00
2022-12-23T06:35:11.987Z,59.00
2022-12-23T06:37:38.913Z,39.60
2022-12-23T06:40:06.461Z,49.80
2022-12-23T06:42:33.434Z,55.50
2022-12-23T06:45:00.515Z,51.70
2022-12-23T06:47:28.276Z,49.70
2022-12-23T06:49:55.344Z,53.80
2022-12-23T06:52:23.141Z,53.90
2022-12-23T06:54:50.109Z,58.10
2022-12-23T06:57:16.943Z,48.70
2022-12-23T11:13:33.741Z,8.20
2022-12-23T11:16:19.793Z,9.00
2022-12-23T11:18:57.925Z,7.30
2022-12-23T11:21:25.437Z,7.40
2022-12-23T11:24:16.576Z,8.90
2022-12-23T11:26:51.182Z,8.80
2022-12-23T11:29:22.956Z,7.70
2022-12-23T11:31:50.132Z,7.70
2022-12-23T11:34:21.499Z,8.90
2022-12-23T11:36:58.683Z,10.40
2022-12-23T11:39:34.019Z,12.20
2022-12-23T11:42:17.893Z,13.60
2022-12-23T11:44:46.493Z,15.30
2022-12-23T11:47:23.802Z,15.70
2022-12-23T11:49:52.978Z,15.00
2022-12-23T11:52:21.422Z,13.80
2022-12-23T11:54:54.940Z,14.00
2022-12-23T11:57:38.736Z,12.90
2022-12-23T12:00:07.807Z,12.10
2022-12-23T12:02:40.769Z,12.60
2022-12-23T12:05:16.642Z,12.00
2022-12-23T12:07:46.766Z,11.20
2022-12-23T12:10:18.288Z,10.90
2022-12-23T12:12:49.956Z,11.00
2022-12-23T12:15:44.203Z,11.20
2022-12-23T12:18:13.607Z,11.30
2022-12-23T12:21:07.358Z,11.50
2022-12-23T12:23:45.607Z,13.20
2022-12-23T12:26:28.664Z,13.30
2022-12-23T12:29:13.999Z,14.70
2022-12-23T12:31:46.160Z,20.70
2022-12-23T12:34:44.486Z,23.60
2022-12-23T12:37:38.261Z,23.80
2022-12-23T12:40:20.512Z,24.50
2022-12-23T12:42:59.967Z,25.10
2022-12-23T12:45:48.803Z,27.00
2022-12-23T12:48:25.283Z,51.70
2022-12-23T12:50:59.933Z,35.30
2022-12-23T12:53:27.084Z,38.10
2022-12-23T12:56:00.145Z,169.70
2022-12-23T12:58:27.063Z,97.00
2022-12-23T13:01:12.856Z,51.80
2022-12-23T13:04:07.803Z,28.40
2022-12-23T13:06:41.251Z,24.70
2022-12-23T13:09:38.860Z,23.20
2022-12-23T13:12:12.386Z,28.20
2022-12-23T13:15:00.695Z,31.80
2022-12-23T13:17:38.324Z,30.80
2022-12-23T13:20:24.579Z,18.20
2022-12-23T13:22:54.356Z,16.20
2022-12-23T13:25:24.240Z,18.70
2022-12-23T13:27:58.754Z,42.30
2022-12-23T13:30:32.250Z,36.90
2022-12-23T13:33:05.169Z,36.20
2022-12-23T13:35:50.552Z,42.40
2022-12-23T13:38:55.449Z,35.70
2022-12-23T13:41:36.208Z,36.30
2022-12-23T13:44:07.601Z,36.50
2022-12-23T13:46:41.225Z,47.10
2022-12-23T13:49:11.427Z,45.30
2022-12-23T13:52:03.762Z,51.00
2022-12-23T13:54:49.865Z,57.20
2022-12-23T13:57:42.192Z,58.00
2022-12-23T14:00:18.513Z,57.50
2022-12-23T14:02:55.125Z,48.50
2022-12-23T14:05:42.430Z,61.10
2022-12-23T14:08:18.312Z,44.30
2022-12-23T14:11:02.295Z,52.70
2022-12-23T14:13:49.801Z,51.30
2022-12-23T14:16:22.871Z,53.50
2022-12-23T14:19:08.641Z,49.60
2022-12-23T14:21:47.826Z,54.10
2022-12-23T14:24:27.673Z,49.10
2022-12-23T14:27:16.688Z,45.50
2022-12-23T14:30:01.519Z,43.90
2022-12-23T14:32:39.616Z,28.80
2022-12-23T14:35:22.648Z,31.10
2022-12-23T14:38:14.496Z,32.20
2022-12-23T14:40:55.072Z,30.70
2022-12-23T14:43:21.985Z,29.50
2022-12-23T14:45:50.408Z,30.80
2022-12-23T14:48:35.679Z,25.70
2022-12-23T14:51:04.088Z,26.70
2022-12-23T14:53:31.952Z,29.50
2022-12-23T14:56:26.852Z,24.00
2022-12-23T14:59:18.861Z,26.40
2022-12-23T15:01:54.114Z,25.10
2022-12-23T15:04:23.843Z,26.40
2022-12-23T15:06:53.573Z,27.10
2022-12-23T15:09:31.380Z,31.00
2022-12-23T15:11:59.956Z,27.60
2022-12-23T15:14:35.676Z,29.50
2022-12-23T15:17:21.600Z,30.50
2022-12-23T15:19:48.699Z,24.30
2022-12-23T15:22:25.220Z,29.30
2022-12-23T15:24:57.143Z,27.20
2022-12-23T15:27:28.911Z,28.10
2022-12-23T15:29:57.061Z,31.20
2022-12-23T15:32:24.687Z,34.20
2022-12-23T15:34:52.022Z,37.20
2022-12-23T15:37:24.816Z,34.50
2022-12-23T15:40:00.294Z,35.80
2022-12-23T15:42:31.837Z,29.40
2022-12-23T15:44:58.765Z,29.10
2022-12-23T15:47:29.013Z,28.80
2022-12-23T15:50:01.475Z,28.70
2022-12-23T15:52:29.358Z,29.90
2022-12-23T15:55:01.761Z,31.50
2022-12-23T15:57:28.872Z,34.50
2022-12-23T15:59:57.421Z,37.80
2022-12-23T16:02:59.705Z,40.00
2022-12-23T16:05:30.063Z,33.20
2022-12-23T16:08:24.538Z,32.30
2022-12-23T16:11:14.015Z,32.60
2022-12-23T16:13:47.374Z,33.30
2022-12-23T16:16:29.820Z,33.80
2022-12-23T16:18:56.719Z,35.30
2022-12-23T16:21:24.956Z,35.70
2022-12-23T16:23:52.120Z,40.00
2022-12-23T16:26:19.573Z,27.60
2022-12-23T16:28:49.137Z,32.80
2022-12-23T16:31:19.009Z,37.50
2022-12-23T16:33:49.056Z,37.40
2022-12-23T16:36:20.909Z,44.00
2022-12-23T16:38:48.687Z,42.30
2022-12-23T16:41:15.533Z,48.00
2022-12-23T16:43:49.569Z,43.70
2022-12-23T16:46:20.952Z,53.30
2022-12-23T16:48:52.682Z,54.40
2022-12-23T16:51:20.269Z,44.00
2022-12-23T16:53:48.342Z,44.40
2022-12-23T16:56:18.369Z,42.70
2022-12-23T16:58:45.348Z,45.80
2022-12-23T17:01:22.638Z,38.60
2022-12-23T17:03:50.739Z,40.60
2022-12-23T17:06:17.657Z,48.10
2022-12-23T17:08:44.600Z,59.20
2022-12-23T17:11:18.430Z,64.20
2022-12-23T17:13:45.624Z,59.80
2022-12-23T17:16:15.346Z,55.00
2022-12-23T17:18:42.272Z,42.50
2022-12-23T17:21:31.351Z,44.50
2022-12-23T17:24:03.426Z,43.50
2022-12-23T17:26:30.497Z,46.20
2022-12-23T17:28:57.329Z,45.80
2022-12-23T17:31:27.232Z,47.00
2022-12-23T17:33:54.568Z,50.30
2022-12-23T17:36:24.241Z,35.20
2022-12-23T17:38:51.138Z,53.80
2022-12-23T17:41:23.578Z,39.60
2022-12-23T17:43:50.462Z,43.30
2022-12-23T17:46:17.744Z,40.10
2022-12-23T17:48:47.053Z,42.40
2022-12-23T17:51:17.642Z,44.20
2022-12-23T17:56:13.177Z,57.60
2022-12-23T17:58:40.582Z,35.40
2022-12-23T18:01:10.490Z,38.20
2022-12-23T18:03:37.306Z,41.40
2022-12-23T18:06:05.643Z,37.30
2022-12-23T18:08:32.716Z,34.20
2022-12-23T18:10:59.634Z,38.60
2022-12-23T18:13:26.664Z,41.10
2022-12-23T18:15:54.426Z,30.30
2022-12-23T18:18:30.175Z,31.70
2022-12-23T18:21:02.464Z,37.80
2022-12-23T18:23:30.921Z,37.10
2022-12-23T18:25:58.018Z,38.60
2022-12-23T18:28:24.953Z,36.90
2022-12-23T18:30:52.656Z,39.80
2022-12-23T18:33:19.932Z,34.20
2022-12-23T18:35:48.419Z,39.20
2022-12-23T18:38:16.007Z,43.40
2022-12-23T18:40:43.332Z,63.40
2022-12-23T18:43:20.137Z,39.40
2022-12-23T18:45:52.435Z,33.20
2022-12-23T18:48:21.523Z,33.20
2022-12-23T18:50:48.557Z,26.20
2022-12-23T18:53:23.401Z,29.00
2022-12-23T18:55:51.379Z,27.50
2022-12-23T18:58:18.855Z,28.70
2022-12-23T19:00:46.319Z,29.90
2022-12-23T19:03:27.596Z,30.80
2022-12-23T21:52:35.241Z,31.70
2022-12-23T21:55:02.193Z,27.40
2022-12-23T21:57:29.350Z,28.10
2022-12-23T21:59:56.249Z,30.20
2022-12-23T22:02:23.178Z,30.50
2022-12-23T22:04:50.235Z,29.60
2022-12-23T22:07:17.045Z,28.60
2022-12-23T22:09:44.017Z,23.80
2022-12-23T22:12:10.887Z,25.70
2022-12-23T22:14:37.922Z,23.00
2022-12-23T22:17:04.760Z,26.30
2022-12-23T22:19:31.670Z,30.70
2022-12-23T22:21:58.503Z,29.40
2022-12-23T22:24:25.597Z,26.40
2022-12-23T22:26:52.495Z,29.90
2022-12-23T22:29:19.380Z,29.50
2022-12-23T22:31:49.957Z,34.00
2022-12-23T22:34:19.112Z,37.10
2022-12-23T22:36:46.089Z,41.90
2022-12-23T22:39:17.727Z,40.50
2022-12-23T22:41:47.501Z,32.20
2022-12-23T22:44:15.066Z,30.60
2022-12-23T22:46:42.064Z,32.30
2022-12-23T22:49:12.687Z,36.10
2022-12-23T22:51:39.890Z,35.30
2022-12-23T22:54:06.789Z,37.00
2022-12-23T22:56:33.739Z,47.20
2022-12-23T22:59:01.014Z,40.70
2022-12-23T23:01:32.562Z,35.10
2022-12-23T23:04:00.396Z,34.60
2022-12-23T23:06:28.351Z,36.10
2022-12-23T23:08:55.552Z,34.30
2022-12-23T23:11:22.985Z,39.00
2022-12-23T23:13:50.802Z,41.50
2022-12-23T23:16:17.851Z,28.50
2022-12-23T23:18:44.970Z,29.20
2022-12-23T23:21:12.663Z,29.10
2022-12-23T23:23:39.616Z,33.70
2022-12-23T23:26:08.706Z,40.00
2022-12-23T23:28:35.971Z,35.00
2022-12-23T23:31:31.916Z,33.60
2022-12-23T23:33:49.672Z,28.20
2022-12-23T23:36:16.544Z,32.70
2022-12-23T23:38:43.614Z,33.00
2022-12-23T23:41:10.482Z,35.80
2022-12-23T23:43:37.283Z,38.70
2022-12-23T23:46:04.684Z,43.20
2022-12-23T23:48:31.948Z,49.10
2022-12-23T23:51:06.103Z,35.40
2022-12-23T23:53:33.202Z,31.30
2022-12-23T23:56:05.132Z,29.30
2022-12-23T23:58:33.747Z,29.90
